Lancaster Airport Lancaster US
ICAO: KLNS
IATA: LNS
Category: Medium
Scheduled Services: Yes

Elevation: 403 ft
TransAlt. 18000 ft.

Airport Communications:
HARRISBURG APP/DEP:126.45
ATIS:125.675
CTAF:120.9
GND:121.8
WILLIAMSPORT RDO:117.3
TWR:120.9
UNICOM:122.95

KLNS Zoom In..

Runways:

(A) RW 08 length 6933 ft width 150 ft
ILS 108.70 / hdg 77

(B) RW 13 length 4102 ft width 100 ft
---- / hdg 128

(C) RW 26 length 6933 ft width 150 ft
---- / hdg 257

(D) RW 31 length 4102 ft width 100 ft
---- / hdg 308

Location; KLNS
Day. 23 / Time. 14.56 Zulu
* Altimeter: 29.66
* Temperature: 11° c. 51.8°f.
* Wind from: 300° Speed 14 kn.
Dewpoint: 11° c.
Visibility: 4 Statute Miles.
Clouds: Few 1100 ft.
Clouds: Scattered 1600 ft.
Clouds: Overcast 3200 ft.
Conditions: Rain.Conditions: Mist.

KLNS 231456Z 30014KT 4SM RA BR FEW011 SCT016 OVC032 11/11 A2966 RMK AO2 WSHFT 1437 P0001 T01060106


Wind From 300°
Speed 14 kn.

YouTube Music Video
 
jpsmedia.com for Web Design  worldairports.se 2018   terms of use